Time;durP1;ratioP1;P1;durP2;ratioP2;P2;SDS_P1;SDS_P2;PMS_P1;PMS_P2;Temp;Humidity;BMP_temperature;BMP_pressure;BME280_temperature;BME280_humidity;BME280_pressure;Samples;Min_cycle;Max_cycle;Signal;HPM_P1;HPM_P2
2023/04/14 00:01:02;;;;;;;7.73;1.90;;;7.30;99.90;;;;;;4070724;29;20545;-93
2023/04/14 00:03:03;;;;;;;5.90;2.17;;;7.30;99.90;;;;;;4054532;29;20248;-94
2023/04/14 00:05:04;;;;;;;15.00;2.57;;;7.40;99.90;;;;;;4054978;29;20305;-93
2023/04/14 00:07:05;;;;;;;10.87;2.07;;;7.30;99.90;;;;;;4070313;29;20649;-93
2023/04/14 00:09:05;;;;;;;6.07;2.13;;;7.20;99.90;;;;;;4070021;29;20382;-93
2023/04/14 00:11:06;;;;;;;11.47;2.50;;;7.20;99.90;;;;;;4054557;29;20192;-94
2023/04/14 00:13:07;;;;;;;7.50;1.90;;;7.20;99.90;;;;;;4070210;29;20202;-93
2023/04/14 00:15:08;;;;;;;7.07;1.93;;;7.20;99.90;;;;;;4054488;29;20181;-95
2023/04/14 00:17:09;;;;;;;6.97;2.27;;;7.30;99.90;;;;;;4054819;29;20221;-93
2023/04/14 00:19:10;;;;;;;11.77;2.30;;;7.40;99.90;;;;;;4070141;29;20184;-94
2023/04/14 00:21:12;;;;;;;8.63;2.27;;;7.50;99.90;;;;;;4054408;29;20598;-93
2023/04/14 00:23:12;;;;;;;8.43;2.13;;;7.50;99.90;;;;;;4054377;29;20213;-92
2023/04/14 00:25:13;;;;;;;7.23;2.03;;;7.50;99.90;;;;;;4070517;29;20176;-95
2023/04/14 00:27:14;;;;;;;8.97;2.10;;;7.60;99.90;;;;;;4054595;29;20262;-94
2023/04/14 00:29:15;;;;;;;12.67;2.70;;;7.60;99.90;;;;;;4069999;29;20168;-92
2023/04/14 00:31:16;;;;;;;7.63;2.27;;;7.70;99.90;;;;;;4054768;29;20263;-94
2023/04/14 00:33:16;;;;;;;11.17;2.63;;;7.80;99.90;;;;;;4070169;29;20208;-92
2023/04/14 00:35:17;;;;;;;7.97;2.37;;;7.80;99.90;;;;;;4070218;29;20190;-94
2023/04/14 00:37:18;;;;;;;8.73;2.20;;;7.90;99.90;;;;;;4054342;29;20169;-93
2023/04/14 00:39:19;;;;;;;8.77;2.17;;;7.90;99.90;;;;;;4069976;29;20171;-93
2023/04/14 00:41:19;;;;;;;7.70;2.30;;;7.80;99.90;;;;;;4071026;29;20180;-92
2023/04/14 00:43:20;;;;;;;6.87;2.47;;;7.80;99.90;;;;;;4056143;29;20220;-93
2023/04/14 00:45:21;;;;;;;8.57;2.17;;;7.70;99.90;;;;;;4088884;29;20176;-92
2023/04/14 00:47:22;;;;;;;7.47;1.83;;;7.60;99.90;;;;;;4057445;29;20173;-94
2023/04/14 00:49:24;;;;;;;9.37;2.33;;;7.50;99.90;;;;;;4070093;29;20561;-94
2023/04/14 00:51:26;;;;;;;7.90;2.10;;;7.40;99.90;;;;;;4069666;29;20193;-93
2023/04/14 00:53:27;;;;;;;12.00;2.17;;;7.30;99.90;;;;;;4069783;29;20192;-94
2023/04/14 00:55:28;;;;;;;6.60;1.90;;;7.30;99.90;;;;;;4054249;29;20240;-92
2023/04/14 00:57:29;;;;;;;6.80;1.67;;;7.30;99.90;;;;;;4054097;29;20271;-94
2023/04/14 00:59:30;;;;;;;5.60;1.80;;;7.20;99.90;;;;;;4069230;29;20196;-93
2023/04/14 01:01:35;;;;;;;7.50;1.90;;;7.20;99.90;;;;;;4053877;29;20196;-93
2023/04/14 01:03:36;;;;;;;8.57;2.00;;;7.20;99.90;;;;;;4069562;29;20251;-93
2023/04/14 01:05:37;;;;;;;6.67;2.00;;;7.30;99.90;;;;;;4069676;29;20231;-94
2023/04/14 01:07:38;;;;;;;9.00;1.93;;;7.40;99.90;;;;;;4054019;29;20673;-91
2023/04/14 01:09:39;;;;;;;4.83;1.40;;;7.40;99.90;;;;;;4054003;29;20232;-92
2023/04/14 01:12:17;;;;;;;8.67;1.53;;;7.20;99.90;;;;;;4069630;29;20176;-94
2023/04/14 01:14:53;;;;;;;7.80;1.50;;;7.30;99.90;;;;;;4069225;29;20207;-92
2023/04/14 01:17:00;;;;;;;7.10;1.43;;;7.30;99.90;;;;;;4068929;29;20689;-94
2023/04/14 01:19:13;;;;;;;6.10;1.47;;;7.40;99.90;;;;;;4053611;29;20181;-94
2023/04/14 01:21:22;;;;;;;4.37;1.60;;;7.30;99.90;;;;;;4053636;29;20742;-94
2023/04/14 01:23:27;;;;;;;4.90;1.80;;;7.40;99.90;;;;;;4053308;29;20223;-94
2023/04/14 01:25:55;;;;;;;4.47;1.33;;;7.40;99.90;;;;;;4069206;29;20228;-94
2023/04/14 01:28:12;;;;;;;5.17;1.50;;;7.40;99.90;;;;;;4053257;29;20208;-94
2023/04/14 01:30:41;;;;;;;6.90;1.67;;;7.30;99.90;;;;;;4053850;29;20195;-92
2023/04/14 01:32:45;;;;;;;4.93;1.67;;;7.20;99.90;;;;;;4053425;29;20185;-96
2023/04/14 01:35:06;;;;;;;5.43;1.70;;;7.10;99.90;;;;;;4053542;29;20177;-95
2023/04/14 01:37:13;;;;;;;5.33;1.70;;;7.00;99.90;;;;;;4053450;29;20211;-93
2023/04/14 01:39:20;;;;;;;5.07;1.93;;;6.90;99.90;;;;;;4053393;29;20179;-93
2023/04/14 01:41:22;;;;;;;5.40;1.80;;;6.80;99.90;;;;;;4053653;29;20223;-92
2023/04/14 01:43:29;;;;;;;7.50;1.97;;;6.80;99.90;;;;;;4053447;29;20221;-94
2023/04/14 01:45:38;;;;;;;10.73;2.07;;;6.80;99.90;;;;;;4053471;29;20321;-94
2023/04/14 01:47:42;;;;;;;9.57;2.30;;;6.70;99.90;;;;;;4053257;29;20268;-94
2023/04/14 01:49:44;;;;;;;8.93;1.80;;;6.60;99.90;;;;;;4053084;29;20175;-92
2023/04/14 01:51:47;;;;;;;6.87;1.90;;;6.60;99.90;;;;;;4053251;29;20200;-94
2023/04/14 01:53:49;;;;;;;8.57;2.03;;;6.60;99.90;;;;;;4052930;29;20208;-94
2023/04/14 01:55:53;;;;;;;12.87;1.70;;;6.70;99.90;;;;;;4053373;29;20653;-93
2023/04/14 01:57:56;;;;;;;7.47;1.93;;;6.70;99.90;;;;;;4053176;29;20272;-94
2023/04/14 01:59:59;;;;;;;6.70;1.93;;;6.60;99.90;;;;;;4053211;29;20267;-95
2023/04/14 02:02:07;;;;;;;6.57;2.00;;;6.50;99.90;;;;;;4053070;29;20538;-92
2023/04/14 02:04:10;;;;;;;8.30;1.53;;;6.50;99.90;;;;;;4052560;29;20230;-93
2023/04/14 02:06:13;;;;;;;6.23;1.90;;;6.50;99.90;;;;;;4053061;29;20176;-93
2023/04/14 02:08:16;;;;;;;7.50;1.90;;;6.50;99.90;;;;;;4052974;29;20173;-92
2023/04/14 02:10:19;;;;;;;7.83;1.83;;;6.60;99.90;;;;;;4053089;29;20184;-94
2023/04/14 02:12:23;;;;;;;7.93;2.10;;;6.60;99.90;;;;;;4053069;29;20269;-94
2023/04/14 02:14:25;;;;;;;9.77;2.17;;;6.60;99.90;;;;;;4052884;29;20208;-93
2023/04/14 02:16:27;;;;;;;7.63;2.20;;;6.50;99.90;;;;;;4052751;29;20188;-95
2023/04/14 02:18:30;;;;;;;8.87;1.93;;;6.40;99.90;;;;;;4052876;29;20267;-94
2023/04/14 02:20:32;;;;;;;7.20;1.93;;;6.40;99.90;;;;;;4068515;29;20187;-95
2023/04/14 02:22:33;;;;;;;8.00;1.80;;;6.30;99.90;;;;;;4068480;29;20184;-92
2023/04/14 02:24:34;;;;;;;4.73;1.90;;;6.30;99.90;;;;;;4068357;29;20200;-92
2023/04/14 02:26:41;;;;;;;8.57;2.07;;;6.30;99.90;;;;;;4068581;29;20176;-93
2023/04/14 02:29:18;;;;;;;8.17;1.70;;;6.30;99.90;;;;;;4068394;29;20590;-95
2023/04/14 02:31:22;;;;;;;5.30;1.80;;;6.20;99.90;;;;;;4052678;29;20209;-93
2023/04/14 02:33:29;;;;;;;6.73;1.97;;;6.10;99.90;;;;;;4052828;29;20610;-92
2023/04/14 02:35:38;;;;;;;6.67;1.60;;;6.30;99.90;;;;;;4052963;29;20240;-94
2023/04/14 02:37:46;;;;;;;4.07;1.33;;;6.20;99.90;;;;;;4052819;29;20183;-95
2023/04/14 02:39:55;;;;;;;5.10;1.60;;;6.10;99.90;;;;;;4052854;29;20557;-93
2023/04/14 02:42:04;;;;;;;6.67;1.53;;;6.10;99.90;;;;;;4053018;29;20168;-92
2023/04/14 02:44:08;;;;;;;5.40;1.67;;;6.10;99.90;;;;;;4052737;29;20255;-94
2023/04/14 02:46:13;;;;;;;7.33;2.10;;;6.30;99.90;;;;;;4052995;29;20176;-93
2023/04/14 02:48:16;;;;;;;7.43;1.67;;;6.30;99.90;;;;;;4052898;29;20177;-93
2023/04/14 02:50:19;;;;;;;8.97;2.00;;;6.40;99.90;;;;;;4052776;29;20253;-94
2023/04/14 02:52:32;;;;;;;8.07;1.70;;;6.40;99.90;;;;;;4054045;29;20264;-95
2023/04/14 02:54:38;;;;;;;5.90;1.93;;;6.30;99.90;;;;;;4054121;29;20204;-95
2023/04/14 02:56:39;;;;;;;7.87;1.80;;;6.20;99.90;;;;;;4066826;29;20188;-93
2023/04/14 02:58:41;;;;;;;6.13;1.63;;;6.20;99.90;;;;;;4063649;29;20181;-92
2023/04/14 03:00:42;;;;;;;7.57;2.00;;;6.10;99.90;;;;;;4052431;29;20209;-92
2023/04/14 03:02:45;;;;;;;6.63;2.10;;;6.10;99.90;;;;;;4052438;29;20315;-94
2023/04/14 03:04:47;;;;;;;5.47;2.03;;;6.10;99.90;;;;;;4068041;29;20216;-93
2023/04/14 03:07:01;;;;;;;6.43;2.27;;;5.90;99.90;;;;;;4070002;29;20224;-93
2023/04/14 03:09:03;;;;;;;8.00;2.20;;;6.00;99.90;;;;;;4055546;29;20192;-94
2023/04/14 03:11:05;;;;;;;6.47;2.03;;;6.10;99.90;;;;;;4071084;29;20174;-93
2023/04/14 03:13:07;;;;;;;5.60;2.03;;;6.10;99.90;;;;;;4071214;29;20192;-95
2023/04/14 03:15:10;;;;;;;8.60;2.33;;;6.00;99.90;;;;;;4071027;29;20172;-94
2023/04/14 03:17:13;;;;;;;7.63;2.10;;;5.90;99.90;;;;;;4071020;29;20647;-93
2023/04/14 03:19:15;;;;;;;10.70;2.63;;;5.80;99.90;;;;;;4055602;29;20177;-94
2023/04/14 03:21:20;;;;;;;6.77;2.30;;;5.80;99.90;;;;;;4055876;29;20185;-93
2023/04/14 03:23:24;;;;;;;7.00;2.20;;;5.80;99.90;;;;;;4054969;29;20319;-93
2023/04/14 03:25:36;;;;;;;8.97;2.43;;;5.90;99.90;;;;;;4056175;29;20327;-93
2023/04/14 03:27:40;;;;;;;12.17;2.60;;;6.10;99.90;;;;;;4055497;29;20240;-94
2023/04/14 03:29:50;;;;;;;8.03;2.67;;;6.10;99.90;;;;;;4070548;29;20239;-94
2023/04/14 03:31:54;;;;;;;10.87;2.80;;;6.20;99.90;;;;;;4071111;29;20183;-92
2023/04/14 03:33:58;;;;;;;6.60;2.40;;;6.20;99.90;;;;;;4070750;29;20226;-94
2023/04/14 03:36:06;;;;;;;10.40;2.90;;;6.10;99.90;;;;;;4071639;29;20219;-93
2023/04/14 03:38:09;;;;;;;4.67;2.07;;;6.00;99.90;;;;;;4055091;29;20173;-94
2023/04/14 03:40:13;;;;;;;6.17;2.80;;;6.00;99.90;;;;;;4055102;29;20673;-91
2023/04/14 03:42:16;;;;;;;9.43;2.77;;;6.10;99.90;;;;;;4055119;29;20181;-92
2023/04/14 03:44:18;;;;;;;10.20;3.03;;;6.30;99.90;;;;;;4070616;29;20220;-94
2023/04/14 03:46:23;;;;;;;10.57;3.30;;;6.10;99.90;;;;;;4071117;29;20629;-93
2023/04/14 03:48:28;;;;;;;9.70;2.93;;;6.00;99.90;;;;;;4070798;29;20184;-91
2023/04/14 03:50:34;;;;;;;9.63;3.00;;;5.90;99.90;;;;;;4086508;29;20171;-93
2023/04/14 03:52:39;;;;;;;12.00;3.03;;;5.90;99.90;;;;;;4070635;29;20235;-92
2023/04/14 03:54:43;;;;;;;10.50;3.00;;;5.90;99.90;;;;;;4055192;29;20242;-93
2023/04/14 03:56:46;;;;;;;11.73;3.00;;;5.80;99.90;;;;;;4055257;29;20177;-93
2023/04/14 03:58:51;;;;;;;12.20;3.20;;;5.80;99.90;;;;;;4070431;29;20665;-93
2023/04/14 04:00:53;;;;;;;11.23;3.33;;;5.80;99.90;;;;;;4070327;29;20649;-93
2023/04/14 04:02:54;;;;;;;10.87;2.77;;;5.70;99.90;;;;;;4070424;29;20227;-96
2023/04/14 04:04:58;;;;;;;9.33;3.57;;;5.80;99.90;;;;;;4070479;29;20677;-94
2023/04/14 04:06:59;;;;;;;11.87;3.23;;;5.90;99.90;;;;;;4054791;29;20177;-92
2023/04/14 04:09:01;;;;;;;7.83;2.77;;;6.00;99.90;;;;;;4070355;29;20200;-93
2023/04/14 04:11:06;;;;;;;8.00;3.10;;;6.00;99.90;;;;;;4054693;29;20264;-93
2023/04/14 04:13:11;;;;;;;8.83;2.97;;;5.90;99.90;;;;;;4054549;29;20200;-93
2023/04/14 04:15:13;;;;;;;10.97;3.13;;;5.80;99.90;;;;;;4054769;29;20177;-92
2023/04/14 04:17:18;;;;;;;9.23;2.90;;;5.90;99.90;;;;;;4054806;29;20180;-92
2023/04/14 04:19:21;;;;;;;12.67;3.10;;;5.80;99.90;;;;;;4054742;29;20269;-93
2023/04/14 04:21:24;;;;;;;11.17;3.23;;;5.80;99.90;;;;;;4054412;29;20173;-93
2023/04/14 04:23:26;;;;;;;10.97;3.27;;;5.70;99.90;;;;;;4054277;29;20611;-92
2023/04/14 04:25:28;;;;;;;12.27;3.03;;;5.70;99.90;;;;;;4054474;29;20634;-93
2023/04/14 04:27:36;;;;;;;6.97;2.50;;;5.60;99.90;;;;;;4070074;29;20574;-93
2023/04/14 04:29:46;;;;;;;9.43;3.13;;;5.60;99.90;;;;;;4070161;29;20190;-92
2023/04/14 04:31:47;;;;;;;10.57;3.00;;;5.60;99.90;;;;;;4070034;29;20195;-93
2023/04/14 04:33:48;;;;;;;8.00;3.20;;;5.80;99.90;;;;;;4070095;29;20211;-92
2023/04/14 04:35:50;;;;;;;12.10;3.30;;;5.80;99.90;;;;;;4054353;29;20205;-92
2023/04/14 04:37:53;;;;;;;14.97;3.23;;;5.80;99.90;;;;;;4070001;29;20179;-93
2023/04/14 04:39:57;;;;;;;8.03;2.60;;;5.80;99.90;;;;;;4069958;29;20188;-94
2023/04/14 04:42:02;;;;;;;8.13;2.80;;;5.80;99.90;;;;;;4069925;29;20657;-94
2023/04/14 04:44:03;;;;;;;10.40;3.13;;;5.70;99.90;;;;;;4053970;29;20311;-93
2023/04/14 04:46:04;;;;;;;11.47;3.27;;;5.70;99.90;;;;;;4069418;29;20172;-94
2023/04/14 04:48:05;;;;;;;14.70;3.50;;;5.80;99.90;;;;;;4054142;29;20181;-94
2023/04/14 04:50:06;;;;;;;8.53;2.73;;;5.80;99.90;;;;;;4069694;29;20263;-95
2023/04/14 04:52:07;;;;;;;11.97;3.70;;;5.80;99.90;;;;;;4085378;29;20183;-94
2023/04/14 04:54:08;;;;;;;13.40;3.33;;;5.90;99.90;;;;;;4053777;29;20259;-93
2023/04/14 04:56:09;;;;;;;10.30;2.77;;;5.80;99.90;;;;;;4054088;29;20574;-95
2023/04/14 04:58:10;;;;;;;11.20;3.20;;;5.90;99.90;;;;;;4069426;29;20180;-92
2023/04/14 05:00:14;;;;;;;12.30;3.90;;;6.00;99.90;;;;;;4070152;29;20199;-93
2023/04/14 05:02:15;;;;;;;16.17;4.33;;;6.20;99.90;;;;;;4071607;29;20235;-93
2023/04/14 05:04:16;;;;;;;17.57;4.53;;;6.30;99.90;;;;;;4072707;29;20217;-91
2023/04/14 05:06:16;;;;;;;13.13;4.33;;;6.40;99.90;;;;;;4060327;29;20725;-93
2023/04/14 05:08:17;;;;;;;13.17;3.77;;;6.60;99.90;;;;;;4054080;29;20189;-93
2023/04/14 05:10:18;;;;;;;13.83;4.13;;;6.70;99.90;;;;;;4053831;29;20662;-93
2023/04/14 05:12:19;;;;;;;13.67;4.20;;;6.80;99.90;;;;;;4069689;29;20190;-93
2023/04/14 05:14:19;;;;;;;12.53;3.57;;;6.90;99.90;;;;;;4084952;29;20222;-92
2023/04/14 05:16:20;;;;;;;12.20;3.60;;;6.90;99.90;;;;;;4053906;29;20624;-92
2023/04/14 05:18:21;;;;;;;11.60;3.50;;;6.80;99.90;;;;;;4085015;29;20277;-93
2023/04/14 05:20:22;;;;;;;10.80;3.27;;;6.90;99.90;;;;;;4053507;29;20220;-93
2023/04/14 05:22:22;;;;;;;10.43;2.63;;;6.80;99.90;;;;;;4084863;29;20696;-93
2023/04/14 05:24:23;;;;;;;8.57;2.63;;;6.70;99.90;;;;;;4053854;29;20281;-95
2023/04/14 05:26:24;;;;;;;9.33;2.57;;;6.70;99.90;;;;;;4085058;29;20175;-93
2023/04/14 05:28:25;;;;;;;9.03;2.40;;;6.70;99.90;;;;;;4053520;29;20240;-93
2023/04/14 05:30:26;;;;;;;8.43;2.30;;;6.70;99.90;;;;;;4068578;29;20187;-94
2023/04/14 05:32:27;;;;;;;7.97;2.30;;;6.70;99.90;;;;;;4069213;29;20172;-93
2023/04/14 05:34:27;;;;;;;13.20;2.20;;;6.40;99.90;;;;;;4053560;29;20241;-95
2023/04/14 05:36:28;;;;;;;10.37;2.07;;;6.50;99.90;;;;;;4069144;29;20180;-94
2023/04/14 05:38:29;;;;;;;9.23;2.67;;;6.60;99.90;;;;;;4069134;29;20180;-93
2023/04/14 05:40:32;;;;;;;7.90;2.20;;;6.70;99.90;;;;;;4084858;29;20179;-94
2023/04/14 05:42:33;;;;;;;5.43;2.20;;;6.80;99.90;;;;;;4053623;29;20188;-93
2023/04/14 05:44:33;;;;;;;12.73;2.40;;;6.90;99.90;;;;;;4084509;29;20270;-94
2023/04/14 05:46:34;;;;;;;8.50;2.40;;;6.90;99.90;;;;;;4053128;29;20176;-95
2023/04/14 05:48:36;;;;;;;5.70;2.47;;;7.00;99.90;;;;;;4084692;29;20168;-94
2023/04/14 05:50:37;;;;;;;9.07;2.23;;;7.00;99.90;;;;;;4053437;29;20184;-93
2023/04/14 05:52:38;;;;;;;7.80;2.13;;;7.10;99.90;;;;;;4084472;29;20171;-94
2023/04/14 05:54:39;;;;;;;7.67;2.20;;;7.10;99.90;;;;;;4053204;29;20225;-94
2023/04/14 05:56:39;;;;;;;6.30;2.00;;;7.00;99.90;;;;;;4084695;29;20192;-93
2023/04/14 05:58:40;;;;;;;5.43;2.03;;;6.80;99.90;;;;;;4053089;29;20188;-94
2023/04/14 06:00:41;;;;;;;7.27;2.13;;;7.10;99.90;;;;;;4069072;29;20712;-93
2023/04/14 06:02:43;;;;;;;5.73;2.53;;;7.10;99.90;;;;;;4053232;29;20184;-95
2023/04/14 06:04:44;;;;;;;8.23;2.67;;;7.30;99.90;;;;;;4053247;29;20247;-93
2023/04/14 06:06:45;;;;;;;7.90;2.23;;;7.40;99.90;;;;;;4069282;29;20177;-93
2023/04/14 06:08:45;;;;;;;8.00;2.00;;;7.50;99.90;;;;;;4068938;29;20204;-94
2023/04/14 06:10:46;;;;;;;8.83;2.33;;;7.80;99.90;;;;;;4068797;29;20177;-94
2023/04/14 06:12:47;;;;;;;8.93;2.57;;;7.80;99.90;;;;;;4053390;29;20201;-93
2023/04/14 06:14:48;;;;;;;6.90;2.30;;;7.70;99.90;;;;;;4068847;29;20576;-94
2023/04/14 06:16:49;;;;;;;6.93;2.40;;;7.90;99.90;;;;;;4084551;29;20252;-95
2023/04/14 06:18:50;;;;;;;8.67;2.50;;;7.90;99.90;;;;;;4068877;29;20240;-94
2023/04/14 06:20:51;;;;;;;5.07;2.60;;;8.00;99.90;;;;;;4053540;29;20177;-94
2023/04/14 06:22:51;;;;;;;6.33;2.67;;;8.10;99.90;;;;;;4052989;29;20184;-94
2023/04/14 06:24:52;;;;;;;9.73;2.43;;;8.40;99.90;;;;;;4052734;29;20185;-95
2023/04/14 06:26:55;;;;;;;9.60;2.37;;;8.50;99.90;;;;;;4070645;29;20183;-94
2023/04/14 06:28:59;;;;;;;13.57;3.00;;;8.60;99.90;;;;;;4054532;29;20177;-94
2023/04/14 06:31:00;;;;;;;10.43;2.70;;;8.80;99.90;;;;;;4069043;29;20188;-94
2023/04/14 06:33:10;;;;;;;7.70;2.43;;;8.90;99.90;;;;;;4053982;29;20201;-94
2023/04/14 06:35:11;;;;;;;8.63;2.40;;;8.80;99.90;;;;;;4053351;29;20298;-92
2023/04/14 06:37:11;;;;;;;10.43;2.73;;;8.80;99.90;;;;;;4068546;29;20176;-94
2023/04/14 06:39:13;;;;;;;8.17;2.27;;;8.70;99.90;;;;;;4069252;29;20725;-94
2023/04/14 06:41:14;;;;;;;9.43;3.00;;;8.60;99.90;;;;;;4069968;29;20172;-94
2023/04/14 06:43:16;;;;;;;9.30;2.70;;;8.90;99.90;;;;;;4058309;29;20247;-93
2023/04/14 06:45:17;;;;;;;7.80;2.60;;;9.10;99.90;;;;;;4057212;29;20248;-95
2023/04/14 06:47:24;;;;;;;9.47;2.60;;;9.20;99.90;;;;;;4072899;29;20687;-93
2023/04/14 06:49:25;;;;;;;14.50;2.83;;;9.20;99.90;;;;;;4056704;29;20183;-95
2023/04/14 06:51:28;;;;;;;8.97;3.20;;;9.40;99.90;;;;;;4088311;29;20211;-93
2023/04/14 06:53:29;;;;;;;11.10;2.63;;;9.60;99.90;;;;;;4057121;29;20205;-94
2023/04/14 06:55:30;;;;;;;8.00;3.10;;;9.70;99.90;;;;;;4073484;29;20259;-94
2023/04/14 06:57:36;;;;;;;9.20;2.87;;;9.90;99.90;;;;;;4072457;29;20173;-93
2023/04/14 06:59:38;;;;;;;10.27;2.60;;;9.70;99.90;;;;;;4071972;29;20238;-91
2023/04/14 07:01:38;;;;;;;11.47;2.77;;;9.80;99.90;;;;;;4071746;29;20658;-94
2023/04/14 07:03:39;;;;;;;16.10;3.10;;;9.60;99.90;;;;;;4087056;29;20297;-95
2023/04/14 07:05:40;;;;;;;7.90;3.00;;;9.80;99.90;;;;;;4056446;29;20241;-94
2023/04/14 07:07:42;;;;;;;17.43;3.13;;;9.80;99.90;;;;;;4087484;29;20640;-95
2023/04/14 07:09:43;;;;;;;15.40;2.97;;;9.90;99.90;;;;;;4071680;29;20549;-93
2023/04/14 07:11:46;;;;;;;7.00;2.70;;;10.10;99.90;;;;;;4071462;29;20176;-94
2023/04/14 07:13:47;;;;;;;11.95;2.67;;;10.80;99.90;;;;;;4071150;29;20208;-94
2023/04/14 07:15:48;;;;;;;9.23;2.65;;;11.70;99.90;;;;;;4056052;29;20196;-94
2023/04/14 07:17:49;;;;;;;5.72;2.30;;;12.40;99.90;;;;;;4071496;29;20169;-94
2023/04/14 07:20:00;;;;;;;7.57;2.58;;;13.80;99.90;;;;;;4056607;29;20272;-94
2023/04/14 07:22:01;;;;;;;9.15;2.40;;;14.10;99.90;;;;;;4073949;29;20668;-95
2023/04/14 07:24:04;;;;;;;6.47;2.13;;;14.50;99.90;;;;;;4062995;29;20221;-93
2023/04/14 07:26:14;;;;;;;9.35;2.20;;;15.60;99.90;;;;;;4090206;29;20201;-93
2023/04/14 07:28:17;;;;;;;6.30;1.40;;;16.40;99.90;;;;;;4068104;29;20192;-94
2023/04/14 07:30:18;;;;;;;6.70;1.80;;;17.20;99.90;;;;;;4058697;29;20212;-95
2023/04/14 07:32:19;;;;;;;6.55;1.95;;;17.70;99.90;;;;;;4071488;29;20184;-95
2023/04/14 07:34:22;;;;;;;6.72;1.95;;;17.80;99.90;;;;;;4056771;29;20197;-94
2023/04/14 07:36:23;;;;;;;5.32;1.80;;;18.20;99.90;;;;;;4072078;29;20232;-95
2023/04/14 07:38:25;;;;;;;7.68;1.98;;;18.40;99.90;;;;;;4058113;29;20173;-94
2023/04/14 07:40:26;;;;;;;4.57;1.75;;;18.30;99.90;;;;;;4055706;29;20542;-95
2023/04/14 07:42:27;;;;;;;5.85;1.50;;;18.80;99.90;;;;;;4072113;29;20195;-94
2023/04/14 07:44:28;;;;;;;5.40;1.50;;;19.30;99.90;;;;;;4097090;29;20231;-95
2023/04/14 07:46:30;;;;;;;4.57;1.48;;;19.30;99.90;;;;;;4074396;29;20224;-94
2023/04/14 07:48:34;;;;;;;3.97;1.40;;;19.90;99.90;;;;;;4057996;29;20184;-96
2023/04/14 07:50:38;;;;;;;11.10;1.70;;;20.40;99.90;;;;;;4070919;29;20187;-94
2023/04/14 07:52:52;;;;;;;10.07;1.58;;;20.10;99.90;;;;;;4056581;29;20589;-94
2023/04/14 07:54:58;;;;;;;7.25;1.38;;;21.00;99.90;;;;;;4072380;29;20218;-95
2023/04/14 07:57:04;;;;;;;2.97;1.10;;;20.50;99.90;;;;;;4071853;29;20176;-95
2023/04/14 07:59:05;;;;;;;7.53;1.40;;;20.20;99.90;;;;;;4055753;29;20169;-94
2023/04/14 08:01:18;;;;;;;8.18;1.30;;;20.70;99.90;;;;;;4075961;29;20192;-95
2023/04/14 08:03:21;;;;;;;7.63;1.63;;;20.50;99.90;;;;;;4072386;29;20223;-96
2023/04/14 08:05:24;;;;;;;4.28;1.77;;;20.80;99.90;;;;;;4057185;29;20939;-95
2023/04/14 08:07:27;;;;;;;6.32;1.40;;;20.30;99.90;;;;;;4055427;29;20200;-95
2023/04/14 08:09:28;;;;;;;5.57;1.60;;;19.50;99.90;;;;;;4072881;29;20168;-95
2023/04/14 08:11:29;;;;;;;5.00;1.33;;;19.20;99.90;;;;;;4072148;29;20184;-95
2023/04/14 08:13:30;;;;;;;6.03;1.60;;;19.40;99.90;;;;;;4086442;29;20230;-95
2023/04/14 08:15:31;;;;;;;5.47;1.98;;;19.30;99.90;;;;;;4055578;29;20183;-94
2023/04/14 08:17:31;;;;;;;6.30;1.77;;;19.80;99.90;;;;;;4071268;29;20645;-93
2023/04/14 08:19:39;;;;;;;7.20;1.60;;;20.30;99.90;;;;;;4090650;29;20187;-94
2023/04/14 08:21:49;;;;;;;5.53;1.25;;;20.80;99.90;;;;;;4072287;29;20243;-94
2023/04/14 08:23:49;;;;;;;6.78;1.70;;;20.80;99.90;;;;;;4074876;29;20286;-95
2023/04/14 08:25:50;;;;;;;6.57;1.50;;;20.60;99.90;;;;;;4058444;29;20205;-94
2023/04/14 08:27:54;;;;;;;5.30;1.45;;;21.20;99.90;;;;;;4074445;29;20649;-94
2023/04/14 08:29:57;;;;;;;4.80;1.50;;;21.50;99.90;;;;;;4059350;29;20169;-94
2023/04/14 08:31:57;;;;;;;4.40;1.63;;;21.10;99.90;;;;;;4077156;29;20192;-94
2023/04/14 08:34:06;;;;;;;4.45;1.77;;;20.50;99.90;;;;;;4056153;29;20279;-96
2023/04/14 08:36:07;;;;;;;5.43;1.70;;;21.00;99.90;;;;;;4058008;29;20169;-94
2023/04/14 08:38:11;;;;;;;7.32;1.40;;;20.90;99.90;;;;;;4073810;29;20292;-96
2023/04/14 08:40:14;;;;;;;6.95;1.80;;;20.70;99.90;;;;;;4074232;29;20270;-95
2023/04/14 08:42:19;;;;;;;5.53;1.52;;;20.60;99.90;;;;;;4071559;29;20645;-96
2023/04/14 08:44:21;;;;;;;5.53;1.83;;;21.10;99.90;;;;;;4073294;29;20287;-96
2023/04/14 08:46:27;;;;;;;5.75;1.83;;;21.10;99.90;;;;;;4072206;29;20168;-95
2023/04/14 08:48:33;;;;;;;3.88;1.63;;;21.30;99.90;;;;;;4057124;29;20185;-95
2023/04/14 08:50:53;;;;;;;4.57;1.45;;;21.10;99.90;;;;;;4059511;29;20180;-95
2023/04/14 08:55:25;;;;;;;4.10;1.45;;;21.20;99.90;;;;;;4075005;29;20192;-94
2023/04/14 08:57:28;;;;;;;4.30;1.25;;;21.20;99.90;;;;;;4056966;29;20208;-94
2023/04/14 08:59:29;;;;;;;5.75;1.42;;;20.90;99.90;;;;;;4071215;29;20195;-96
2023/04/14 09:01:32;;;;;;;5.25;1.50;;;20.90;99.90;;;;;;4056177;29;20196;-95
2023/04/14 09:03:36;;;;;;;4.57;1.30;;;21.50;99.90;;;;;;4054187;29;20705;-94
2023/04/14 09:05:37;;;;;;;7.43;1.58;;;21.40;99.90;;;;;;4071033;29;20187;-96
2023/04/14 09:07:38;;;;;;;3.65;1.38;;;20.50;99.90;;;;;;4072185;29;20188;-96
2023/04/14 09:09:44;;;;;;;5.05;1.27;;;20.60;99.90;;;;;;4062139;29;20165;-95
2023/04/14 09:11:47;;;;;;;7.63;1.33;;;20.10;99.90;;;;;;4073605;29;20729;-95
2023/04/14 09:13:49;;;;;;;4.25;1.10;;;20.50;99.90;;;;;;4056465;29;20197;-93
2023/04/14 09:15:56;;;;;;;4.53;1.40;;;19.80;99.90;;;;;;4059973;29;20177;-94
2023/04/14 09:17:57;;;;;;;3.80;1.05;;;20.00;99.90;;;;;;4076115;29;20208;-96
2023/04/14 09:19:58;;;;;;;7.10;1.40;;;20.30;99.90;;;;;;4057116;29;20184;-95
2023/04/14 09:22:02;;;;;;;4.50;1.15;;;20.60;99.90;;;;;;4057420;29;20219;-94
2023/04/14 09:24:03;;;;;;;4.85;1.17;;;20.60;99.90;;;;;;4071847;29;20224;-95
2023/04/14 09:26:08;;;;;;;4.97;1.00;;;20.20;99.90;;;;;;4055010;29;20236;-95
2023/04/14 09:28:14;;;;;;;6.10;1.60;;;20.10;99.90;;;;;;4073548;29;20279;-95
2023/04/14 09:30:19;;;;;;;3.17;1.05;;;20.20;99.90;;;;;;4055905;29;20574;-95
2023/04/14 09:32:21;;;;;;;4.10;1.30;;;20.10;99.90;;;;;;4072307;29;20180;-95
2023/04/14 09:34:27;;;;;;;6.03;1.40;;;19.80;99.90;;;;;;4056399;29;20197;-96
2023/04/14 09:36:28;;;;;;;5.03;1.25;;;19.80;99.90;;;;;;4057310;29;20192;-94
2023/04/14 09:38:40;;;;;;;5.43;1.25;;;19.60;99.90;;;;;;4055316;29;20183;-96
2023/04/14 09:40:43;;;;;;;5.40;1.25;;;19.70;99.90;;;;;;4070726;29;20206;-94
2023/04/14 09:42:46;;;;;;;4.20;0.95;;;19.00;99.90;;;;;;4072023;29;20176;-96
2023/04/14 09:44:59;;;;;;;4.07;1.00;;;19.40;99.90;;;;;;4072542;29;20172;-95
2023/04/14 09:47:06;;;;;;;3.35;1.17;;;20.10;99.90;;;;;;4071331;29;20176;-95
2023/04/14 09:49:07;;;;;;;3.03;1.00;;;20.30;99.90;;;;;;4054170;29;20181;-93
2023/04/14 09:51:12;;;;;;;4.72;1.20;;;20.30;99.90;;;;;;4084992;29;20172;-95
2023/04/14 09:53:24;;;;;;;5.00;1.20;;;20.60;99.90;;;;;;4057065;29;20196;-94
2023/04/14 09:55:26;;;;;;;4.43;1.02;;;20.40;99.90;;;;;;4057124;29;20250;-96
2023/04/14 09:57:27;;;;;;;3.88;0.98;;;20.30;99.90;;;;;;4072454;29;20222;-96
2023/04/14 09:59:52;;;;;;;3.92;1.15;;;20.50;99.90;;;;;;4073123;29;20223;-96
2023/04/14 10:02:08;;;;;;;3.40;1.02;;;19.80;99.90;;;;;;4056063;29;20208;-95
2023/04/14 10:04:31;;;;;;;6.80;1.17;;;19.20;99.90;;;;;;4057141;29;20226;-96
2023/04/14 10:06:40;;;;;;;5.78;0.95;;;18.90;99.90;;;;;;4072537;29;20639;-96
2023/04/14 10:08:46;;;;;;;1.52;0.80;;;18.70;99.90;;;;;;4070992;29;20259;-95
2023/04/14 10:11:17;;;;;;;4.97;1.15;;;18.30;99.90;;;;;;4058582;29;20177;-95
2023/04/14 10:13:25;;;;;;;3.60;0.82;;;18.30;99.90;;;;;;4074683;29;20208;-95
2023/04/14 10:15:27;;;;;;;8.50;1.45;;;18.00;99.90;;;;;;4061287;29;20220;-95
2023/04/14 10:17:28;;;;;;;4.43;0.85;;;17.80;99.90;;;;;;4071379;29;20184;-93
2023/04/14 10:19:30;;;;;;;6.82;0.95;;;17.40;99.90;;;;;;4058167;29;20609;-96
2023/04/14 10:21:32;;;;;;;2.83;0.80;;;16.70;99.90;;;;;;4060659;29;20646;-93
2023/04/14 10:23:38;;;;;;;5.00;0.80;;;16.50;99.90;;;;;;4075748;29;20269;-96
2023/04/14 10:25:40;;;;;;;5.97;0.90;;;16.00;99.90;;;;;;4074835;29;20272;-93
2023/04/14 10:27:41;;;;;;;2.92;0.82;;;16.00;99.90;;;;;;4076889;29;20182;-92
2023/04/14 10:29:42;;;;;;;3.53;0.98;;;15.70;99.90;;;;;;4061801;29;20176;-94
2023/04/14 10:31:53;;;;;;;8.32;1.00;;;15.40;99.90;;;;;;4070539;29;20184;-92
2023/04/14 10:33:54;;;;;;;5.25;1.05;;;15.40;99.90;;;;;;4063613;29;20197;-95
2023/04/14 10:36:00;;;;;;;6.32;0.90;;;15.50;99.90;;;;;;4076993;29;20187;-93
2023/04/14 10:38:03;;;;;;;4.63;1.15;;;15.50;99.90;;;;;;4062545;29;20626;-94
2023/04/14 10:40:08;;;;;;;5.40;1.00;;;15.60;99.90;;;;;;4078157;29;20180;-93
2023/04/14 10:42:09;;;;;;;8.30;2.20;;;15.60;99.90;;;;;;4077650;29;20184;-94
2023/04/14 10:44:28;;;;;;;5.57;1.20;;;15.80;99.90;;;;;;4059046;29;20233;-95
2023/04/14 10:46:42;;;;;;;3.42;1.13;;;15.50;99.90;;;;;;4058537;29;20185;-94
2023/04/14 10:48:47;;;;;;;3.97;1.05;;;15.60;99.90;;;;;;4056282;29;20188;-92
2023/04/14 10:50:50;;;;;;;3.88;0.80;;;16.00;99.90;;;;;;4058706;29;20173;-94